^^
Grace C. Lehan Memorial Weather Station Historical Data
Daily Summary for February 7, 2021 Units:  English    Metric   Both
Daily Weekly Monthly Yearly
  High: Low: Average:
Temperature: 95.2 °F 70 °F 82.5 °F
Dew Point: 76.4 °F 63.9 °F 70.5 °F
Humidity: 84% 47.5% 68%
Wind Speed: 3.5mph 0mph 0.4mph
Wind Gust: 13mph - -
Wind- - SW
Pressure: 30.05 in 29.96 in -
Precipitation: 0.00 in    
 
 
Tabular Data for February 7, 2021
Time Temperature Dew Point Pressure Wind Wind Speed Wind Gust Humidity Rainfall Rate (Hourly) solar
00:04 75.6 °F 65.5 °F 30.01 in Calm     71% 0.00 in 0 W/m2
00:09 75.5 °F 65.4 °F 30.02 in Calm     71% 0.00 in 0 W/m2
00:14 75.3 °F 65.3 °F 30.02 in Calm     71% 0.00 in 0 W/m2
00:19 75.2 °F 65.3 °F 30.02 in Calm     71.4% 0.00 in 0 W/m2
00:24 75.1 °F 65.5 °F 30.02 in Calm     72% 0.00 in 0 W/m2
00:29 75 °F 65.3 °F 30.02 in Calm     72% 0.00 in 0 W/m2
00:34 74.8 °F 65.2 °F 30.02 in Calm     72% 0.00 in 0 W/m2
00:39 74.7 °F 65.1 °F 30.02 in Calm     72% 0.00 in 0 W/m2
00:44 74.6 °F 65 °F 30.01 in Calm     72% 0.00 in 0 W/m2
00:49 74.5 °F 64.9 °F 30.02 in Calm     72% 0.00 in 0 W/m2
00:54 74.4 °F 64.8 °F 30.02 in Calm     72% 0.00 in 0 W/m2
00:59 74.3 °F 65.1 °F 30.02 in Calm     73% 0.00 in 0 W/m2
01:04 74.1 °F 64.9 °F 30.02 in Calm     73% 0.00 in 0 W/m2
01:09 73.9 °F 64.7 °F 30.02 in Calm     73% 0.00 in 0 W/m2
01:14 73.7 °F 64.7 °F 30.02 in Calm     73.5% 0.00 in 0 W/m2
01:19 73.6 °F 64.8 °F 30.02 in Calm     74% 0.00 in 0 W/m2
01:24 73.5 °F 64.7 °F 30.02 in Calm     74% 0.00 in 0 W/m2
01:29 73.4 °F 64.6 °F 30.01 in Calm     74% 0.00 in 0 W/m2
01:34 73.2 °F 64.5 °F 30.02 in Calm     74% 0.00 in 0 W/m2
01:39 73.1 °F 64.3 °F 30.02 in Calm     74% 0.00 in 0 W/m2
01:44 73 °F 64.2 °F 30.02 in Calm     74% 0.00 in 0 W/m2
01:49 72.9 °F 64.1 °F 30.02 in Calm     74% 0.00 in 0 W/m2
01:54 72.8 °F 64 °F 30.01 in Calm     74.1% 0.00 in 0 W/m2
01:59 72.6 °F 64.3 °F 30.01 in Calm     75% 0.00 in 0 W/m2
02:04 72.5 °F 64.2 °F 30.01 in Calm     75% 0.00 in 0 W/m2
02:09 72.4 °F 64.1 °F 30.01 in Calm     75% 0.00 in 0 W/m2
02:14 72.4 °F 64 °F 30.01 in Calm     75% 0.00 in 0 W/m2
02:19 72.3 °F 63.9 °F 30.01 in Calm     75% 0.00 in 0 W/m2
02:24 72.2 °F 63.9 °F 30.01 in Calm     75.1% 0.00 in 0 W/m2
02:29 72.2 °F 64.2 °F 30.01 in Calm     76% 0.00 in 0 W/m2
02:34 72.1 °F 64.1 °F 30.01 in Calm     76% 0.00 in 0 W/m2
02:39 72 °F 64 °F 30.01 in Calm     76% 0.00 in 0 W/m2
02:44 71.9 °F 64.2 °F 30.01 in Calm     76.7% 0.00 in 0 W/m2
02:49 71.8 °F 64.2 °F 30.01 in Calm     77% 0.00 in 0 W/m2
02:54 71.7 °F 64.1 °F 30.01 in Calm     77% 0.00 in 0 W/m2
02:59 71.7 °F 64.1 °F 30.01 in Calm     77% 0.00 in 0 W/m2
03:04 71.7 °F 64.1 °F 30.01 in Calm     77% 0.00 in 0 W/m2
03:09 71.6 °F 64 °F 30.01 in Calm     77% 0.00 in 0 W/m2
03:14 71.5 °F 64 °F 30.01 in Calm     77% 0.00 in 0 W/m2
03:19 71.5 °F 63.9 °F 30.01 in Calm     77.2% 0.00 in 0 W/m2
03:24 71.3 °F 64.1 °F 30.01 in Calm     78% 0.00 in 0 W/m2
03:29 71.2 °F 64 °F 30.01 in Calm     78% 0.00 in 0 W/m2
03:34 71.1 °F 64.2 °F 30.01 in Calm     78.6% 0.00 in 0 W/m2
03:39 71.1 °F 64.3 °F 30.01 in Calm     79% 0.00 in 0 W/m2
03:44 71 °F 64.2 °F 30.01 in Calm     79% 0.00 in 0 W/m2
03:49 71 °F 64.2 °F 30.01 in Calm     79% 0.00 in 0 W/m2
03:54 71 °F 64.2 °F 30.01 in Calm     79% 0.00 in 0 W/m2
03:59 70.9 °F 64.1 °F 30.00 in Calm     79% 0.00 in 0 W/m2
04:04 70.8 °F 64 °F 30.00 in Calm     79% 0.00 in 0 W/m2
04:09 70.8 °F 64.1 °F 30.00 in Calm     79.4% 0.00 in 0 W/m2
04:14 70.7 °F 64.2 °F 30.00 in Calm     80% 0.00 in 0 W/m2
04:19 70.6 °F 64.2 °F 30.00 in Calm     80% 0.00 in 0 W/m2
04:24 70.5 °F 64.3 °F 30.00 in Calm     80.7% 0.00 in 0 W/m2
04:29 70.4 °F 64.3 °F 30.00 in Calm     81% 0.00 in 0 W/m2
04:34 70.4 °F 64.3 °F 30.00 in Calm     81% 0.00 in 0 W/m2
04:39 70.3 °F 64.2 °F 30.00 in Calm     81% 0.00 in 0 W/m2
04:44 70.3 °F 64.3 °F 30.00 in Calm     81.4% 0.00 in 0 W/m2
04:49 70.2 °F 64.4 °F 30.00 in Calm     82% 0.00 in 0 W/m2
04:54 70.2 °F 64.4 °F 30.01 in Calm     82% 0.00 in 0 W/m2
04:59 70.1 °F 64.4 °F 30.01 in Calm     82% 0.00 in 0 W/m2
05:04 70.2 °F 64.4 °F 30.01 in Calm     82% 0.00 in 0 W/m2
05:09 70.2 °F 64.4 °F 30.01 in Calm     82% 0.00 in 0 W/m2
05:14 70.2 °F 64.4 °F 30.01 in Calm     82% 0.00 in 0 W/m2
05:19 70.2 °F 64.4 °F 30.01 in Calm     82% 0.00 in 0 W/m2
05:24 70.1 °F 64.4 °F 30.01 in Calm     82% 0.00 in 5 W/m2
05:29 70.1 °F 64.7 °F 30.01 in Calm     82.9% 0.00 in 9 W/m2
05:34 70.1 °F 64.7 °F 30.01 in Calm     83% 0.00 in 11 W/m2
05:39 70.1 °F 64.7 °F 30.02 in Calm     83% 0.00 in 14 W/m2
05:44 70 °F 64.6 °F 30.02 in Calm     83% 0.00 in 18 W/m2
05:49 70 °F 64.6 °F 30.02 in Calm     83% 0.00 in 21 W/m2
05:54 70.1 °F 65 °F 30.02 in Calm     83.9% 0.00 in 25 W/m2
05:59 70.1 °F 65.1 °F 30.02 in Calm     84% 0.00 in 28 W/m2
06:04 70.1 °F 65.1 °F 30.03 in Calm     84% 0.00 in 32 W/m2
06:09 70.2 °F 65.2 °F 30.02 in Calm     84% 0.00 in 33 W/m2
06:14 70.3 °F 65.3 °F 30.03 in Calm     84% 0.00 in 37 W/m2
06:19 70.5 °F 65.4 °F 30.03 in Calm     84% 0.00 in 39 W/m2
06:24 70.6 °F 65.6 °F 30.03 in Calm     84% 0.00 in 44 W/m2
06:29 70.8 °F 65.7 °F 30.03 in Calm     84% 0.00 in 51 W/m2
06:34 71 °F 65.8 °F 30.03 in Calm     83.8% 0.00 in 54 W/m2
06:39 71.2 °F 65.8 °F 30.03 in Calm     83% 0.00 in 60 W/m2
06:44 71.6 °F 66.3 °F 30.03 in Calm     83.3% 0.00 in 63 W/m2
06:49 72.1 °F 66.6 °F 30.03 in Calm     83% 0.00 in 69 W/m2
06:54 72.7 °F 66.9 °F 30.03 in Calm     82% 0.00 in 72 W/m2
06:59 73.3 °F 67.3 °F 30.03 in Calm     81.4% 0.00 in 76 W/m2
07:04 74 °F 67.5 °F 30.03 in Calm     79.9% 0.00 in 76 W/m2
07:09 74.7 °F 67.5 °F 30.03 in Calm     78.5% 0.00 in 79 W/m2
07:14 75.3 °F 67.9 °F 30.03 in Calm     77.8% 0.00 in 84 W/m2
07:19 75.9 °F 68.1 °F 30.03 in Calm     76.8% 0.00 in 102 W/m2
07:24 76.5 °F 68.4 °F 30.03 in Calm     76% 0.00 in 278 W/m2
07:29 77.2 °F 68.8 °F 30.03 in Calm     75.2% 0.00 in 294 W/m2
07:34 77.8 °F 68.8 °F 30.03 in Calm     73.7% 0.00 in 315 W/m2
07:39 78.4 °F 68.9 °F 30.03 in Calm     72.6% 0.00 in 327 W/m2
07:44 78.9 °F 69.1 °F 30.03 in Calm     72% 0.00 in 346 W/m2
07:49 79.4 °F 69.3 °F 30.03 in Calm     71.5% 0.00 in 362 W/m2
07:54 79.7 °F 69.7 °F 30.04 in Calm     71.5% 0.00 in 380 W/m2
07:59 80.3 °F 70.2 °F 30.04 in Calm     71.5% 0.00 in 403 W/m2
08:00 80.6 °F 70.3 °F 30.04 in Calm     71% 0.00 in 403 W/m2
08:09 81.8 °F 71 °F 30.04 in Calm     69.8% 0.00 in 441 W/m2
08:14 82.5 °F 70.9 °F 30.04 in Calm     68.1% 0.00 in 461 W/m2
08:19 83 °F 70.9 °F 30.04 in Calm   1 mph 67.1% 0.00 in 475 W/m2
08:24 83.3 °F 71 °F 30.04 in Calm   1 mph 66.6% 0.00 in 490 W/m2
08:29 83.8 °F 71.7 °F 30.04 in Calm   1 mph 67% 0.00 in 508 W/m2
08:34 84.4 °F 72 °F 30.04 in Calm   1 mph 66.4% 0.00 in 520 W/m2
08:39 84.9 °F 72.1 °F 30.04 in Calm     65.5% 0.00 in 536 W/m2
08:44 85.2 °F 71.8 °F 30.04 in Calm   1 mph 64.2% 0.00 in 548 W/m2
08:49 85.3 °F 71.9 °F 30.04 in Calm   1 mph 64.2% 0.00 in 564 W/m2
08:54 85.6 °F 71.8 °F 30.04 in Calm   1 mph 63.6% 0.00 in 575 W/m2
08:59 85.9 °F 72.3 °F 30.04 in Calm   2 mph 63.9% 0.00 in 589 W/m2
09:04 86.4 °F 72.7 °F 30.04 in Calm   2 mph 63.9% 0.00 in 599 W/m2
09:09 86.9 °F 72.9 °F 30.05 in Calm     63.2% 0.00 in 612 W/m2
09:14 87.4 °F 72.9 °F 30.04 in Calm     62.2% 0.00 in 631 W/m2
09:19 87.8 °F 73.4 °F 30.04 in Calm     62.6% 0.00 in 643 W/m2
09:24 88.2 °F 73.9 °F 30.04 in Calm   1 mph 62.7% 0.00 in 645 W/m2
09:29 88.7 °F 73.6 °F 30.04 in Calm   1 mph 61.2% 0.00 in 671 W/m2
09:34 89 °F 73 °F 30.04 in Calm   1 mph 59.3% 0.00 in 691 W/m2
09:39 89.3 °F 73.3 °F 30.04 in Calm   1 mph 59.4% 0.00 in 717 W/m2
09:44 89.7 °F 73.4 °F 30.04 in Calm   1 mph 58.8% 0.00 in 729 W/m2
09:49 90.1 °F 73.3 °F 30.04 in SW 0.1 mph 3 mph 57.8% 0.00 in 740 W/m2
09:54 90.5 °F 74.2 °F 30.04 in SW 0.1 mph 3 mph 59.1% 0.00 in 793 W/m2
09:59 90.9 °F 74.1 °F 30.04 in SW 0.1 mph 3 mph 58% 0.00 in 793 W/m2
10:04 91.2 °F 73.9 °F 30.04 in Calm   3 mph 57.1% 0.00 in 761 W/m2
10:09 91.4 °F 73.8 °F 30.04 in Calm   1 mph 56.5% 0.00 in 770 W/m2
10:14 91.6 °F 73.8 °F 30.04 in SW 0.3 mph 3 mph 56.2% 0.00 in 782 W/m2
10:19 91.8 °F 73.3 °F 30.04 in Calm   3 mph 55% 0.00 in 789 W/m2
10:24 92 °F 73.6 °F 30.04 in Calm   3 mph 55.3% 0.00 in 800 W/m2
10:29 92.1 °F 73.4 °F 30.04 in Calm   3 mph 54.6% 0.00 in 810 W/m2
10:34 92.1 °F 73.6 °F 30.04 in Calm   3 mph 55% 0.00 in 819 W/m2
10:39 92 °F 73.2 °F 30.04 in Calm   1 mph 54.3% 0.00 in 823 W/m2
10:44 92 °F 73.5 °F 30.04 in SW 0.2 mph 2 mph 54.9% 0.00 in 833 W/m2
10:49 92 °F 73.4 °F 30.04 in Calm   2 mph 54.8% 0.00 in 844 W/m2
10:54 92.4 °F 74 °F 30.04 in SW 0.3 mph 3 mph 55.2% 0.00 in 875 W/m2
10:59 92.7 °F 73.3 °F 30.03 in SW 0.7 mph 4 mph 53.4% 0.00 in 879 W/m2
11:04 92.7 °F 73.8 °F 30.03 in SW 0.1 mph 4 mph 54.4% 0.00 in 962 W/m2
11:09 92.8 °F 73.9 °F 30.03 in Calm   2 mph 54.3% 0.00 in 984 W/m2
11:14 92.8 °F 74.3 °F 30.03 in SW 0.7 mph 3 mph 55.1% 0.00 in 1000 W/m2
11:19 93 °F 74.1 °F 30.03 in WSW 1.1 mph 5 mph 54.4% 0.00 in 1000 W/m2
11:24 93.2 °F 74.9 °F 30.03 in Calm   5 mph 55.5% 0.00 in 1037 W/m2
11:29 93.6 °F 74.5 °F 30.03 in WSW 0.1 mph 5 mph 54% 0.00 in 1037 W/m2
11:34 94 °F 73.3 °F 30.03 in WSW 1.2 mph 7 mph 51.3% 0.00 in 1002 W/m2
11:39 94.3 °F 72.2 °F 30.03 in WSW 0.2 mph 7 mph 49% 0.00 in 983 W/m2
11:44 94.1 °F 72.1 °F 30.03 in WSW 1 mph 7 mph 49.1% 0.00 in 972 W/m2
11:49 94.1 °F 72.7 °F 30.03 in WSW 0.3 mph 7 mph 50.1% 0.00 in 984 W/m2
11:54 94.1 °F 71.7 °F 30.02 in WSW 1 mph 7 mph 48.3% 0.00 in 1039 W/m2
11:59 94.1 °F 72.1 °F 30.02 in WSW 2.2 mph 7 mph 49.1% 0.00 in 1039 W/m2
12:00 94 °F 72.5 °F 30.02 in WSW 2 mph 7 mph 50% 0.00 in 225 W/m2
12:09 93.3 °F 71 °F 30.02 in WSW 0.5 mph 4 mph 48.5% 0.00 in 1053 W/m2
12:14 93 °F 71.5 °F 30.01 in WSW 1.8 mph 5 mph 49.8% 0.00 in 1053 W/m2
12:19 93.1 °F 72.2 °F 30.01 in WSW 0.7 mph 6 mph 50.7% 0.00 in 1067 W/m2
12:24 93.4 °F 72.6 °F 30.01 in WSW 1.9 mph 6 mph 51.1% 0.00 in 1083 W/m2
12:29 93.3 °F 72 °F 30.01 in WSW 1.3 mph 6 mph 50.2% 0.00 in 220 W/m2
12:34 93.1 °F 72.5 °F 30.01 in WSW 1.7 mph 6 mph 51.3% 0.00 in 993 W/m2
12:39 93.1 °F 73.4 °F 30.01 in WSW 1.2 mph 5 mph 53% 0.00 in 1058 W/m2
12:44 93.5 °F 72.6 °F 30.01 in WSW 2.4 mph 6 mph 50.9% 0.00 in 1058 W/m2
12:49 93.8 °F 72.8 °F 30.01 in WSW 1.6 mph 6 mph 50.7% 0.00 in 1041 W/m2
12:54 93.9 °F 72.7 °F 30.01 in WSW 1.8 mph 7 mph 50.4% 0.00 in 1039 W/m2
12:59 94 °F 72.9 °F 30.00 in West 2 mph 13 mph 50.6% 0.00 in 1039 W/m2
13:04 93.9 °F 72.9 °F 30.00 in West 1.9 mph 13 mph 50.8% 0.00 in 1025 W/m2
13:09 94 °F 73.1 °F 30.00 in WSW 2.2 mph 12 mph 51% 0.00 in 1014 W/m2
13:14 94.1 °F 72.6 °F 30.00 in WSW 1.4 mph 12 mph 49.9% 0.00 in 1081 W/m2
13:19 94 °F 72.2 °F 30.00 in WSW 3.5 mph 12 mph 49.4% 0.00 in 1081 W/m2
13:24 94.1 °F 72.5 °F 30.00 in WSW 2.7 mph 12 mph 49.8% 0.00 in 1018 W/m2
13:29 94.2 °F 72.4 °F 30.00 in SW 1.1 mph 12 mph 49.5% 0.00 in 1078 W/m2
13:34 94.2 °F 73.4 °F 30.00 in West 2.6 mph 12 mph 51.1% 0.00 in 1035 W/m2
13:39 94.3 °F 72.4 °F 30.00 in SW 2.6 mph 10 mph 49.3% 0.00 in 1055 W/m2
13:44 94.4 °F 73.4 °F 29.99 in WSW 1.6 mph 10 mph 50.8% 0.00 in 1035 W/m2
13:49 94.8 °F 73.2 °F 29.99 in SW 2.8 mph 10 mph 50% 0.00 in 1069 W/m2
13:54 95.2 °F 72.5 °F 29.99 in SW 2.9 mph 12 mph 48.1% 0.00 in 1069 W/m2
13:59 95.2 °F 72.2 °F 29.99 in SW 3.2 mph 12 mph 47.7% 0.00 in 1034 W/m2
14:04 95.1 °F 72.4 °F 29.99 in SW 2.6 mph 12 mph 48.1% 0.00 in 977 W/m2
14:09 95.2 °F 72.4 °F 29.99 in SW 2.5 mph 9 mph 47.9% 0.00 in 1013 W/m2
14:14 95 °F 71.9 °F 29.99 in WSW 0.9 mph 9 mph 47.5% 0.00 in 229 W/m2
14:19 94.7 °F 72.3 °F 29.99 in WSW 1.1 mph 9 mph 48.6% 0.00 in 1053 W/m2
14:24 94.6 °F 73.2 °F 29.99 in WSW 0.8 mph 9 mph 50.2% 0.00 in 248 W/m2
14:29 94.3 °F 74.7 °F 29.98 in SSW 0.9 mph 9 mph 53.3% 0.00 in 981 W/m2
14:34 94 °F 75.2 °F 29.98 in South 2 mph 9 mph 54.6% 0.00 in 967 W/m2
14:39 94 °F 75.4 °F 29.98 in WSW 1.2 mph 6 mph 55.1% 0.00 in 956 W/m2
14:44 94.1 °F 75.9 °F 29.98 in WSW 1.3 mph 6 mph 55.8% 0.00 in 1023 W/m2
14:49 94.2 °F 76 °F 29.98 in SW 0.9 mph 8 mph 55.6% 0.00 in 1023 W/m2
14:54 94.2 °F 75.9 °F 29.98 in SW 0.6 mph 8 mph 55.7% 0.00 in 977 W/m2
14:59 94.3 °F 76.1 °F 29.98 in WSW 2.4 mph 8 mph 55.9% 0.00 in 967 W/m2
15:04 94.4 °F 76.1 °F 29.98 in WSW 1.3 mph 8 mph 55.6% 0.00 in 949 W/m2
15:09 94.4 °F 75.6 °F 29.98 in SSW 1.9 mph 5 mph 54.8% 0.00 in 949 W/m2
15:14 93.8 °F 75 °F 29.98 in SSW 0.8 mph 5 mph 54.6% 0.00 in 905 W/m2
15:19 93.4 °F 75.6 °F 29.98 in WSW 0.5 mph 5 mph 56.5% 0.00 in 882 W/m2
15:24 93.3 °F 76 °F 29.97 in WSW 1 mph 5 mph 57.3% 0.00 in 867 W/m2
15:29 93.2 °F 75.3 °F 29.97 in SW 1 mph 5 mph 56.3% 0.00 in 853 W/m2
15:34 92.9 °F 75 °F 29.97 in SSW 1.1 mph 5 mph 56.2% 0.00 in 160 W/m2
15:39 92.6 °F 75.3 °F 29.97 in SW 0.2 mph 4 mph 57.3% 0.00 in 817 W/m2
15:44 92.2 °F 75.4 °F 29.97 in WSW 0.8 mph 5 mph 58.1% 0.00 in 821 W/m2
15:49 92 °F 75.9 °F 29.97 in WSW 0.1 mph 5 mph 59.5% 0.00 in 830 W/m2
15:54 92.1 °F 76.4 °F 29.97 in SW 0.8 mph 5 mph 60.4% 0.00 in 773 W/m2
15:59 92.1 °F 76 °F 29.97 in SW 1 mph 5 mph 59.6% 0.00 in 744 W/m2
16:00 92.1 °F 76.2 °F 29.97 in Calm   5 mph 60% 0.00 in 710 W/m2
16:09 91.4 °F 74.9 °F 29.96 in South 0.3 mph 4 mph 58.7% 0.00 in 482 W/m2
16:14 90.9 °F 75.1 °F 29.96 in South 0.7 mph 4 mph 60.1% 0.00 in 482 W/m2
16:19 90.6 °F 75.6 °F 29.96 in SSW 1.2 mph 4 mph 61.5% 0.00 in 162 W/m2
16:24 90.6 °F 75.5 °F 29.96 in SW 0.9 mph 4 mph 61.5% 0.00 in 127 W/m2
16:29 90.3 °F 74.9 °F 29.96 in South 1.9 mph 6 mph 60.8% 0.00 in 155 W/m2
16:34 90.1 °F 75.3 °F 29.96 in SW 1.3 mph 6 mph 61.8% 0.00 in 125 W/m2
16:39 90 °F 75.3 °F 29.97 in SW 1.5 mph 6 mph 62% 0.00 in 107 W/m2
16:44 89.8 °F 75.1 °F 29.96 in SW 1 mph 6 mph 62.1% 0.00 in 125 W/m2
16:49 89.7 °F 75.4 °F 29.97 in SSW 1.6 mph 10 mph 62.9% 0.00 in 97 W/m2
16:54 89.7 °F 75 °F 29.97 in South 0.8 mph 10 mph 62.2% 0.00 in 84 W/m2
16:59 89.6 °F 74.8 °F 29.97 in South 1.4 mph 10 mph 62% 0.00 in 79 W/m2
17:04 89.4 °F 75 °F 29.97 in SW 1 mph 10 mph 62.6% 0.00 in 76 W/m2
17:09 89.3 °F 75.1 °F 29.97 in SW 1.6 mph 11 mph 63% 0.00 in 77 W/m2
17:14 89.2 °F 75 °F 29.97 in SSW 3.3 mph 11 mph 63% 0.00 in 79 W/m2
17:19 89 °F 74.6 °F 29.97 in SW 1.7 mph 11 mph 62.5% 0.00 in 81 W/m2
17:24 88.9 °F 74.7 °F 29.97 in SW 0.8 mph 11 mph 63% 0.00 in 86 W/m2
17:29 88.7 °F 74.4 °F 29.97 in SSW 1.6 mph 11 mph 62.8% 0.00 in 86 W/m2
17:34 88.4 °F 74.2 °F 29.97 in SW 2.2 mph 11 mph 63% 0.00 in 104 W/m2
17:39 88.1 °F 74.6 °F 29.97 in SW 0.5 mph 9 mph 64.3% 0.00 in 137 W/m2
17:44 88.1 °F 74.8 °F 29.96 in SW 1.3 mph 9 mph 64.9% 0.00 in 130 W/m2
17:49 88.1 °F 74.6 °F 29.97 in SW 0.7 mph 9 mph 64.5% 0.00 in 123 W/m2
17:54 88.2 °F 74.7 °F 29.97 in SW 1.4 mph 9 mph 64.4% 0.00 in 121 W/m2
17:59 88.3 °F 74.6 °F 29.97 in SW 0.1 mph 9 mph 64% 0.00 in 105 W/m2
18:04 88.2 °F 74.4 °F 29.97 in SW 0.5 mph 9 mph 63.8% 0.00 in 91 W/m2
18:09 88 °F 74 °F 29.98 in SW 0.3 mph 6 mph 63.3% 0.00 in 86 W/m2
18:14 87.9 °F 74.3 °F 29.98 in SW 0.3 mph 6 mph 64.3% 0.00 in 84 W/m2
18:19 87.7 °F 74.5 °F 29.98 in SW 0.6 mph 6 mph 65% 0.00 in 86 W/m2
18:24 87.6 °F 74.3 °F 29.98 in SW 1 mph 10 mph 64.8% 0.00 in 79 W/m2
18:29 87.3 °F 74.4 °F 29.98 in SW 0.3 mph 10 mph 65.7% 0.00 in 81 W/m2
18:34 87.1 °F 74.4 °F 29.98 in SW 0.8 mph 10 mph 66.2% 0.00 in 74 W/m2
18:39 86.8 °F 74 °F 29.98 in SSW 1.3 mph 9 mph 66% 0.00 in 69 W/m2
18:44 86.4 °F 74.1 °F 29.98 in SW 0.3 mph 9 mph 66.8% 0.00 in 53 W/m2
18:49 86.1 °F 74.2 °F 29.97 in SW 1.2 mph 11 mph 67.7% 0.00 in 47 W/m2
18:54 85.7 °F 74 °F 29.97 in SW 0.3 mph 11 mph 68% 0.00 in 33 W/m2
18:59 85.4 °F 74 °F 29.97 in WSW 0.4 mph 11 mph 68.8% 0.00 in 32 W/m2
19:04 85.1 °F 74 °F 29.97 in SW 0.2 mph 11 mph 69.5% 0.00 in 42 W/m2
19:09 84.8 °F 74.1 °F 29.97 in SW 0.1 mph 2 mph 70.4% 0.00 in 47 W/m2
19:14 84.6 °F 74 °F 29.97 in WSW 0.3 mph 3 mph 70.4% 0.00 in 40 W/m2
19:19 84.4 °F 73.2 °F 29.97 in WSW 0.1 mph 3 mph 69% 0.00 in 35 W/m2
19:24 84.3 °F 73.1 °F 29.98 in Calm   3 mph 69.1% 0.00 in 30 W/m2
19:29 84.2 °F 72.9 °F 29.98 in Calm   3 mph 68.9% 0.00 in 23 W/m2
19:34 84.1 °F 72.4 °F 29.98 in WSW 0.1 mph 3 mph 68% 0.00 in 18 W/m2
19:39 84 °F 72.2 °F 29.98 in Calm   2 mph 67.8% 0.00 in 14 W/m2
19:44 83.9 °F 72 °F 29.98 in Calm   2 mph 67.5% 0.00 in 11 W/m2
19:49 83.7 °F 71.8 °F 29.98 in Calm   2 mph 67.5% 0.00 in 9 W/m2
19:54 83.5 °F 71.9 °F 29.98 in Calm   2 mph 68.2% 0.00 in 7 W/m2
19:59 83.3 °F 72.4 °F 29.98 in Calm   2 mph 69.7% 0.00 in 5 W/m2
20:00 83.2 °F 72.4 °F 29.98 in Calm   2 mph 70% 0.00 in 5 W/m2
20:09 82.9 °F 73 °F 29.98 in Calm   1 mph 72% 0.00 in 0 W/m2
20:14 82.8 °F 72.9 °F 29.98 in Calm   1 mph 72.1% 0.00 in 0 W/m2
20:19 82.6 °F 73.1 °F 29.98 in Calm   1 mph 73% 0.00 in 0 W/m2
20:24 82.5 °F 72.9 °F 29.98 in Calm   1 mph 73% 0.00 in 0 W/m2
20:29 82.3 °F 73.1 °F 29.98 in Calm   1 mph 73.8% 0.00 in 0 W/m2
20:34 82.1 °F 73 °F 29.98 in WSW 0.1 mph 2 mph 74% 0.00 in 0 W/m2
20:39 81.9 °F 72.8 °F 29.98 in WSW 0.1 mph 2 mph 74% 0.00 in 0 W/m2
20:44 81.7 °F 72.6 °F 29.98 in Calm   2 mph 74% 0.00 in 0 W/m2
20:49 81.6 °F 72.5 °F 29.98 in Calm   2 mph 74% 0.00 in 0 W/m2
20:54 81.4 °F 72.6 °F 29.98 in Calm   2 mph 74.7% 0.00 in 0 W/m2
20:59 81.2 °F 72.5 °F 29.99 in Calm   2 mph 75% 0.00 in 0 W/m2
21:04 81.1 °F 72.4 °F 29.99 in Calm   2 mph 75% 0.00 in 0 W/m2
21:09 80.9 °F 72.6 °F 29.99 in Calm     75.8% 0.00 in 0 W/m2
21:14 80.8 °F 72.5 °F 29.99 in Calm     76% 0.00 in 0 W/m2
21:19 80.7 °F 72.4 °F 29.99 in Calm     76% 0.00 in 0 W/m2
21:24 80.6 °F 72.4 °F 29.99 in Calm     76.2% 0.00 in 0 W/m2
21:29 80.5 °F 72.6 °F 30.00 in Calm     77% 0.00 in 0 W/m2
21:34 80.3 °F 72.4 °F 30.00 in Calm     77% 0.00 in 0 W/m2
21:39 80.1 °F 72.2 °F 30.00 in Calm     77% 0.00 in 0 W/m2
21:44 79.9 °F 72 °F 30.00 in SW 0.2 mph 3 mph 77% 0.00 in 0 W/m2
21:49 79.6 °F 71.7 °F 30.00 in Calm   3 mph 77% 0.00 in 0 W/m2
21:54 79.3 °F 71.5 °F 30.00 in Calm   3 mph 77% 0.00 in 0 W/m2
21:59 79.1 °F 71.3 °F 30.00 in Calm   3 mph 77% 0.00 in 0 W/m2
22:04 78.9 °F 71.4 °F 30.00 in Calm   3 mph 78% 0.00 in 0 W/m2
22:09 78.7 °F 71.3 °F 30.00 in Calm     78% 0.00 in 0 W/m2
22:14 78.5 °F 71.1 °F 30.00 in Calm     78.1% 0.00 in 0 W/m2
22:19 78.4 °F 71.3 °F 29.99 in Calm     79% 0.00 in 0 W/m2
22:24 78.2 °F 71.1 °F 29.99 in Calm     79% 0.00 in 0 W/m2
22:29 78 °F 71 °F 29.99 in Calm     79% 0.00 in 0 W/m2
22:34 77.8 °F 70.8 °F 30.00 in Calm     79% 0.00 in 0 W/m2
22:39 77.7 °F 70.6 °F 30.00 in Calm     79% 0.00 in 0 W/m2
22:44 77.5 °F 70.9 °F 30.00 in Calm     80% 0.00 in 0 W/m2
22:49 77.3 °F 70.7 °F 30.00 in Calm     80% 0.00 in 0 W/m2
22:54 77.2 °F 70.6 °F 30.00 in Calm     80% 0.00 in 0 W/m2
22:59 77.1 °F 70.7 °F 30.00 in Calm     80.6% 0.00 in 0 W/m2
23:04 76.9 °F 70.7 °F 30.00 in Calm     81% 0.00 in 0 W/m2
23:09 76.8 °F 70.5 °F 30.00 in Calm     81% 0.00 in 0 W/m2
23:14 76.7 °F 70.4 °F 30.00 in Calm   1 mph 81% 0.00 in 0 W/m2
23:19 76.5 °F 70.4 °F 30.00 in Calm   1 mph 81.4% 0.00 in 0 W/m2
23:24 76.4 °F 70.5 °F 30.00 in Calm   1 mph 82% 0.00 in 0 W/m2
23:29 76.3 °F 70.4 °F 30.00 in Calm   1 mph 82% 0.00 in 0 W/m2
23:34 76.2 °F 70.3 °F 30.00 in Calm   1 mph 82% 0.00 in 0 W/m2
23:39 76.1 °F 70.2 °F 30.00 in Calm     82% 0.00 in 0 W/m2
23:44 76 °F 70.1 °F 30.00 in Calm     82% 0.00 in 0 W/m2
23:49 76 °F 70.1 °F 30.00 in Calm   1 mph 82% 0.00 in 0 W/m2
23:54 75.9 °F 70 °F 30.00 in Calm   1 mph 82% 0.00 in 0 W/m2
23:59 75.8 °F 70.1 °F 30.00 in Calm   1 mph 82.6% 0.00 in 0 W/m2
Hartford County Weather
Compliments of Weather Underground - 2 mb